Time;durP1;ratioP1;P1;durP2;ratioP2;P2;SDS_P1;SDS_P2;PMS_P1;PMS_P2;Temp;Humidity;BMP_temperature;BMP_pressure;BME280_temperature;BME280_humidity;BME280_pressure;Samples;Min_cycle;Max_cycle;Signal;HPM_P1;HPM_P2
2022/07/09 00:01:23;;;;;;;;;1.67;1.67;;;;;-146.67;29.15;74597.75;5080272;28;62253;-81
2022/07/09 00:03:49;;;;;;;;;2.00;2.00;;;;;-146.67;29.03;74609.72;5082213;27;61977;-81
2022/07/09 00:06:14;;;;;;;;;2.33;2.33;;;;;-146.67;29.24;74617.69;5082593;28;62085;-81
2022/07/09 00:08:40;;;;;;;;;2.75;2.75;;;;;-146.67;29.11;74619.69;5073983;28;64969;-81
2022/07/09 00:11:05;;;;;;;;;2.67;2.33;;;;;-146.67;29.41;74615.72;5084982;27;61996;-81
2022/07/09 00:13:31;;;;;;;;;2.25;2.00;;;;;-146.67;29.34;74611.72;5085266;28;61699;-80
2022/07/09 00:15:56;;;;;;;;;2.00;2.00;;;;;-146.67;29.66;74611.72;5067262;28;62181;-80
2022/07/09 00:18:21;;;;;;;;;3.67;2.67;;;;;-146.67;29.21;74617.69;5066753;28;63819;-80
2022/07/09 00:20:47;;;;;;;;;2.00;2.00;;;;;-146.67;29.18;74625.69;5067400;28;61955;-81
2022/07/09 00:23:12;;;;;;;;;3.00;3.00;;;;;-146.67;29.16;74621.69;5085283;28;62049;-81
2022/07/09 00:25:38;;;;;;;;;4.75;3.25;;;;;-146.67;29.60;74621.69;5085792;27;61995;-81
2022/07/09 00:28:04;;;;;;;;;2.67;1.67;;;;;-146.67;29.15;74619.69;5077725;27;62108;-80
2022/07/09 00:30:29;;;;;;;;;2.33;2.33;;;;;-146.67;29.35;74621.69;5064737;28;62469;-81
2022/07/09 00:32:55;;;;;;;;;2.00;2.00;;;;;-146.67;29.49;74621.69;5065195;28;61994;-80
2022/07/09 00:35:20;;;;;;;;;3.75;2.25;;;;;-146.67;29.81;74631.69;5046827;28;62097;-81
2022/07/09 00:37:46;;;;;;;;;2.50;2.50;;;;;-146.67;29.49;74645.66;5046121;28;63779;-80
2022/07/09 00:40:11;;;;;;;;;2.00;2.00;;;;;-146.67;29.46;74641.66;5046821;28;61947;-81
2022/07/09 00:42:37;;;;;;;;;1.50;1.50;;;;;-146.67;29.68;74651.66;5046175;28;62116;-81
2022/07/09 00:45:02;;;;;;;;;5.00;3.50;;;;;-146.67;29.61;74651.66;5064763;28;61735;-81
2022/07/09 00:47:28;;;;;;;;;3.00;2.50;;;;;-146.67;29.61;74663.63;5064042;28;62888;-81
2022/07/09 00:49:54;;;;;;;;;5.00;3.00;;;;;-146.67;29.76;74679.59;5064559;28;61893;-81
2022/07/09 00:52:20;;;;;;;;;3.25;3.25;;;;;-146.67;29.89;74687.56;5071926;27;61914;-81
2022/07/09 00:54:45;;;;;;;;;4.50;3.00;;;;;-146.67;29.54;74693.56;5085052;27;61906;-81
2022/07/09 00:57:12;;;;;;;;;2.33;2.33;;;;;-146.67;30.17;74705.53;5082356;27;64910;-81
2022/07/09 00:59:39;;;;;;;;;2.67;2.67;;;;;-146.67;29.88;74711.53;5084197;27;61707;-81
2022/07/09 01:02:07;;;;;;;;;3.75;2.50;;;;;-146.67;30.17;74715.53;5083512;27;61834;-81
2022/07/09 01:04:32;;;;;;;;;4.00;3.00;;;;;-146.67;30.12;74711.53;5083438;27;62166;-81
2022/07/09 01:06:58;;;;;;;;;4.00;4.00;;;;;-146.67;30.10;74711.53;5084253;27;62255;-81
2022/07/09 01:09:25;;;;;;;;;2.25;2.25;;;;;-146.67;30.30;74717.53;5070801;28;61941;-81
2022/07/09 01:11:51;;;;;;;;;4.50;4.50;;;;;-146.67;29.96;74709.53;5084680;27;62072;-81
2022/07/09 01:14:17;;;;;;;;;3.25;3.00;;;;;-146.67;30.09;74707.53;5066482;28;61865;-81
2022/07/09 01:16:42;;;;;;;;;3.50;2.75;;;;;-146.67;30.22;74703.56;5083437;28;61889;-81
2022/07/09 01:19:08;;;;;;;;;6.67;3.00;;;;;-146.67;29.78;74709.53;5066508;28;61864;-81
2022/07/09 01:21:34;;;;;;;;;4.25;4.25;;;;;-146.67;30.16;74705.53;5065793;28;62035;-80
2022/07/09 01:23:59;;;;;;;;;3.25;3.25;;;;;-146.67;30.02;74713.53;5084481;28;61777;-81
2022/07/09 01:26:26;;;;;;;;;5.00;4.00;;;;;-146.67;30.26;74713.53;5084056;27;61929;-81
2022/07/09 01:28:52;;;;;;;;;3.25;3.00;;;;;-146.67;30.03;74727.50;5071012;27;61915;-80
2022/07/09 01:31:18;;;;;;;;;4.00;3.00;;;;;-146.67;29.91;74739.50;5063941;28;61951;-81
2022/07/09 01:33:44;;;;;;;;;3.00;3.00;;;;;-146.67;30.62;74751.47;5064143;28;62000;-80
2022/07/09 01:36:10;;;;;;;;;2.25;2.00;;;;;-146.67;30.56;74741.50;5045357;28;63680;-81
2022/07/09 01:38:35;;;;;;;;;3.75;3.00;;;;;-146.67;30.83;74747.47;5063107;28;61661;-80
2022/07/09 01:41:01;;;;;;;;;3.75;3.00;;;;;-146.67;30.57;74739.50;5063982;28;61753;-81
2022/07/09 01:43:26;;;;;;;;;2.25;2.25;;;;;-146.67;30.63;74743.47;5046053;28;62118;-81
2022/07/09 01:45:52;;;;;;;;;3.00;3.00;;;;;-146.67;30.77;74743.47;5063149;28;62029;-81
2022/07/09 01:48:18;;;;;;;;;4.00;2.00;;;;;-146.67;30.84;74749.47;5064020;28;61856;-81
2022/07/09 01:50:43;;;;;;;;;4.00;4.00;;;;;-146.67;30.81;74743.47;5045685;28;61993;-81
2022/07/09 01:53:09;;;;;;;;;4.50;3.50;;;;;-146.67;30.91;74745.47;5069844;27;62057;-81
2022/07/09 01:55:34;;;;;;;;;3.25;3.25;;;;;-146.67;30.91;74741.50;5081853;28;64825;-81
2022/07/09 01:58:00;;;;;;;;;4.25;4.25;;;;;-146.67;30.76;74741.50;5083697;28;61940;-81
2022/07/09 02:00:27;;;;;;;;;3.25;3.25;;;;;-146.67;31.11;74739.50;5084003;28;61740;-81
2022/07/09 02:02:53;;;;;;;;;4.50;4.50;;;;;-146.67;30.77;74745.47;5084275;27;61867;-80
2022/07/09 02:05:19;;;;;;;;;3.25;3.25;;;;;-146.67;30.82;74751.47;5083374;27;62183;-80
2022/07/09 02:07:45;;;;;;;;;3.25;3.25;;;;;-146.67;31.14;74763.44;5083353;27;61731;-81
2022/07/09 02:10:10;;;;;;;;;4.75;3.75;;;;;-146.67;31.37;74783.41;5065586;28;61928;-81
2022/07/09 02:12:36;;;;;;;;;5.00;4.00;;;;;-146.67;31.36;74789.41;5084007;28;62195;-81
2022/07/09 02:15:01;;;;;;;;;3.25;3.25;;;;;-146.67;31.34;74795.41;5064898;28;63726;-80
2022/07/09 02:17:27;;;;;;;;;6.00;5.00;;;;;-146.67;31.62;74809.38;5083618;27;61889;-80
2022/07/09 02:19:52;;;;;;;;;4.50;4.50;;;;;-146.67;31.30;74821.34;5065268;28;61765;-81
2022/07/09 02:22:18;;;;;;;;;4.00;4.00;;;;;-146.67;31.38;74833.31;5065293;28;61995;-81
2022/07/09 02:24:43;;;;;;;;;3.00;3.00;;;;;-146.67;31.73;74833.31;5082847;27;63154;-80
2022/07/09 02:27:09;;;;;;;;;2.75;2.75;;;;;-146.67;31.65;74827.34;5065438;27;61996;-80
2022/07/09 02:29:35;;;;;;;;;4.25;4.25;;;;;-146.67;31.68;74821.34;5064334;28;62135;-81
2022/07/09 02:32:00;;;;;;;;;4.00;3.75;;;;;-146.67;31.76;74831.34;5043688;28;61858;-80
2022/07/09 02:34:25;;;;;;;;;3.25;3.25;;;;;-146.67;31.51;74833.31;5062592;28;62013;-81
2022/07/09 02:36:52;;;;;;;;;4.00;4.00;;;;;-146.67;31.56;74843.31;5044473;28;61801;-81
2022/07/09 02:39:17;;;;;;;;;4.75;4.00;;;;;-146.67;32.16;74853.28;5044795;28;61863;-81
2022/07/09 02:41:43;;;;;;;;;4.00;4.00;;;;;-146.67;32.26;74855.28;5063144;28;62056;-81
2022/07/09 02:44:08;;;;;;;;;5.25;4.00;;;;;-146.67;31.90;74863.28;5062543;28;61875;-81
2022/07/09 02:46:34;;;;;;;;;5.00;5.00;;;;;-146.67;32.18;74863.28;5062668;28;62113;-81
2022/07/09 02:48:59;;;;;;;;;3.25;3.25;;;;;-146.67;32.11;74875.25;5062792;28;62260;-80
2022/07/09 02:51:25;;;;;;;;;4.25;4.00;;;;;-146.67;32.16;74879.25;5062883;28;62087;-81
2022/07/09 02:53:50;;;;;;;;;3.75;3.75;;;;;-146.67;32.21;74887.25;5079912;28;63121;-81
2022/07/09 02:56:16;;;;;;;;;7.00;4.50;;;;;-146.67;32.39;74891.22;5083229;27;61874;-81
2022/07/09 02:58:41;;;;;;;;;6.00;3.75;;;;;-146.67;32.04;74891.22;5082263;27;61852;-81
2022/07/09 03:01:07;;;;;;;;;3.00;3.00;;;;;-146.67;32.30;74901.22;5082997;27;61944;-81
2022/07/09 03:03:36;;;;;;;;;6.75;5.00;;;;;-146.67;32.30;74905.22;5082638;27;61929;-81
2022/07/09 03:06:07;;;;;;;;;3.50;3.50;;;;;-146.67;32.30;74917.19;5082681;27;61797;-80
2022/07/09 03:08:33;;;;;;;;;5.00;4.00;;;;;-146.67;32.70;74917.19;5076354;27;62294;-81
2022/07/09 03:10:59;;;;;;;;;4.50;3.50;;;;;-146.67;32.39;74919.19;5082600;28;61723;-81
2022/07/09 03:13:24;;;;;;;;;4.75;4.75;;;;;-146.67;32.55;74925.19;5064038;28;64295;-80
2022/07/09 03:15:50;;;;;;;;;4.50;4.50;;;;;-146.67;32.50;74931.16;5082515;27;61861;-81
2022/07/09 03:18:15;;;;;;;;;5.25;5.25;;;;;-146.67;32.38;74939.16;5064439;28;61895;-81
2022/07/09 03:20:41;;;;;;;;;3.00;3.00;;;;;-146.67;32.81;74937.16;5082531;27;61759;-81
2022/07/09 03:23:06;;;;;;;;;4.50;3.75;;;;;-146.67;32.60;74939.16;5081980;28;62711;-81
2022/07/09 03:25:33;;;;;;;;;4.00;4.00;;;;;-146.67;32.57;74939.16;5082785;28;61775;-81
2022/07/09 03:27:58;;;;;;;;;3.00;3.00;;;;;-146.67;32.30;74955.13;5058189;28;61882;-81
2022/07/09 03:30:24;;;;;;;;;7.75;4.25;;;;;-146.67;32.60;74965.09;5062208;28;62082;-81
2022/07/09 03:32:50;;;;;;;;;5.25;4.00;;;;;-146.67;32.72;74979.09;5043328;28;63426;-81
2022/07/09 03:35:16;;;;;;;;;4.75;4.75;;;;;-146.67;32.89;74983.06;5061742;28;61829;-81
2022/07/09 03:37:41;;;;;;;;;7.00;5.50;;;;;-146.67;33.02;74987.06;5062191;28;62083;-81
2022/07/09 03:40:07;;;;;;;;;5.75;5.00;;;;;-146.67;32.95;74983.06;5044200;28;61971;-81
2022/07/09 03:42:33;;;;;;;;;5.50;5.50;;;;;-146.67;32.71;74985.06;5061782;28;61818;-81
2022/07/09 03:44:58;;;;;;;;;8.25;7.00;;;;;-146.67;32.88;75005.03;5064533;28;61820;-81
2022/07/09 03:47:23;;;;;;;;;8.75;6.75;;;;;-146.67;32.86;75019.03;5065923;28;61818;-81
2022/07/09 03:49:49;;;;;;;;;4.00;4.00;;;;;-146.67;32.73;75023.00;5047522;28;61888;-81
2022/07/09 03:52:15;;;;;;;;;7.25;3.75;;;;;-146.67;32.41;75033.00;5056004;27;63078;-81
2022/07/09 03:54:40;;;;;;;;;4.00;4.00;;;;;-146.67;33.28;75039.00;5085950;27;61989;-81
2022/07/09 03:57:05;;;;;;;;;4.00;4.00;;;;;-146.67;33.16;75044.97;5084753;27;61845;-81
2022/07/09 03:59:31;;;;;;;;;8.00;6.50;;;;;-146.67;32.95;75066.94;5085791;27;61828;-81
2022/07/09 04:01:56;;;;;;;;;6.75;5.50;;;;;-146.67;33.35;75080.91;5084920;27;61938;-81
2022/07/09 04:04:22;;;;;;;;;7.50;6.50;;;;;-146.67;33.08;75092.91;5100906;27;61830;-81
2022/07/09 04:06:47;;;;;;;;;6.00;6.00;;;;;-146.67;32.87;75096.91;5086082;28;61977;-81
2022/07/09 04:09:13;;;;;;;;;6.25;6.00;;;;;-146.67;33.67;75102.88;5066046;28;62458;-81
2022/07/09 04:11:38;;;;;;;;;7.50;5.00;;;;;-146.67;33.71;75088.91;5065049;28;61987;-81
2022/07/09 04:14:03;;;;;;;;;6.00;4.50;;;;;-146.67;34.03;75078.91;5065233;28;61921;-81
2022/07/09 04:16:29;;;;;;;;;7.75;5.00;;;;;-146.67;33.53;75084.91;5064903;28;62032;-81
2022/07/09 04:18:55;;;;;;;;;7.50;6.50;;;;;-146.67;33.49;75084.91;5064974;28;61970;-81
2022/07/09 04:21:23;;;;;;;;;5.00;4.00;;;;;-146.67;33.15;75080.91;5064630;28;62909;-81
2022/07/09 04:23:49;;;;;;;;;11.00;7.50;;;;;-146.67;33.81;75076.94;5046935;28;62023;-81
2022/07/09 04:26:15;;;;;;;;;7.50;6.00;;;;;-146.67;33.90;75078.91;5064790;28;61867;-81
2022/07/09 04:28:41;;;;;;;;;7.00;6.00;;;;;-146.67;33.69;75074.94;5064595;28;61909;-81
2022/07/09 04:31:06;;;;;;;;;5.75;5.50;;;;;-146.67;33.67;75074.94;5064167;28;63031;-81
2022/07/09 04:33:32;;;;;;;;;6.25;5.00;;;;;-146.67;33.45;75076.94;5064837;28;61831;-81
2022/07/09 04:35:57;;;;;;;;;6.00;6.00;;;;;-146.67;33.67;75074.94;5064985;28;61926;-81
2022/07/09 04:38:23;;;;;;;;;7.25;5.50;;;;;-146.67;33.60;75058.94;5047093;28;61868;-81
2022/07/09 04:40:48;;;;;;;;;7.00;5.75;;;;;-146.67;33.89;75066.94;5046290;28;63846;-81
2022/07/09 04:43:14;;;;;;;;;4.50;4.50;;;;;-146.67;33.59;75056.97;5046655;28;61814;-81
2022/07/09 04:45:39;;;;;;;;;6.25;6.25;;;;;-146.67;33.44;75064.94;5046374;28;62088;-81
2022/07/09 04:48:05;;;;;;;;;8.25;6.75;;;;;-146.67;33.46;75078.91;5064660;28;61907;-81
2022/07/09 04:50:30;;;;;;;;;8.50;6.75;;;;;-146.67;33.62;75072.94;5064507;28;62101;-81
2022/07/09 04:52:56;;;;;;;;;6.75;6.75;;;;;-146.67;33.94;75080.91;5067472;28;61902;-81
2022/07/09 04:55:22;;;;;;;;;6.75;5.25;;;;;-146.67;33.43;75080.91;5084179;27;61809;-81
2022/07/09 04:57:48;;;;;;;;;7.25;6.50;;;;;-146.67;33.55;75090.91;5084980;27;61886;-81
2022/07/09 05:00:15;;;;;;;;;4.00;4.00;;;;;-146.67;33.94;75094.91;5084517;28;62192;-81
2022/07/09 05:02:42;;;;;;;;;6.50;6.00;;;;;-146.67;32.71;75096.91;5084184;27;61928;-81
2022/07/09 05:05:08;;;;;;;;;7.25;5.00;;;;;-146.67;33.82;75100.88;5083429;27;62009;-81
2022/07/09 05:07:34;;;;;;;;;7.25;7.00;;;;;-146.67;33.82;75108.88;5085362;27;61853;-81
2022/07/09 05:10:03;;;;;;;;;6.00;6.00;;;;;-146.67;33.43;75120.84;5065863;28;63972;-80
2022/07/09 05:12:29;;;;;;;;;10.25;7.50;;;;;-146.67;34.00;75116.84;5085049;28;61953;-80
2022/07/09 05:14:56;;;;;;;;;8.50;6.00;;;;;-146.67;33.83;75108.88;5066272;28;61909;-81
2022/07/09 05:17:22;;;;;;;;;9.25;8.25;;;;;-146.67;33.84;75106.88;5084231;27;61911;-80
2022/07/09 05:19:47;;;;;;;;;9.50;6.00;;;;;-146.67;33.51;75104.88;5065825;28;63957;-80
2022/07/09 05:22:12;;;;;;;;;9.00;7.00;;;;;-146.67;33.33;75102.88;5066084;28;62130;-81
2022/07/09 05:24:38;;;;;;;;;5.75;5.75;;;;;-146.67;33.71;75100.88;5084634;28;61939;-81
2022/07/09 05:27:04;;;;;;;;;10.50;6.75;;;;;-146.67;33.82;75098.88;5066650;28;61845;-81
2022/07/09 05:29:30;;;;;;;;;8.00;7.00;;;;;-146.67;33.06;75086.91;5064891;28;61874;-81
2022/07/09 05:31:57;;;;;;;;;8.50;7.50;;;;;-146.67;33.72;75086.91;5063629;28;61823;-81
2022/07/09 05:34:23;;;;;;;;;7.50;7.00;;;;;-146.67;33.38;75080.91;5045990;28;61828;-80
2022/07/09 05:36:48;;;;;;;;;10.50;9.25;;;;;-146.67;33.29;75046.97;5046141;28;61803;-80
2022/07/09 05:39:14;;;;;;;;;7.00;7.00;;;;;-146.67;33.39;75042.97;5045341;28;64065;-81
2022/07/09 05:41:39;;;;;;;;;9.75;7.75;;;;;-146.67;33.01;75013.03;5046157;28;61757;-80
2022/07/09 05:44:05;;;;;;;;;7.00;7.00;;;;;-146.67;32.61;74917.19;5064124;28;61859;-81
2022/07/09 05:46:30;;;;;;;;;11.75;7.25;;;;;-146.67;31.65;74805.38;5045282;28;61860;-81
2022/07/09 05:48:56;;;;;;;;;12.25;7.50;;;;;-146.67;31.14;74725.50;5045193;28;63940;-81
2022/07/09 05:51:22;;;;;;;;;7.00;6.00;;;;;-146.67;30.45;74645.66;5045829;28;61988;-81
2022/07/09 05:53:47;;;;;;;;;8.00;6.50;;;;;-146.67;30.51;74619.69;5083229;27;62410;-80
2022/07/09 05:56:13;;;;;;;;;6.75;6.75;;;;;-146.67;30.12;74615.72;5082900;27;62151;-80
2022/07/09 05:58:39;;;;;;;;;7.00;7.00;;;;;-146.67;30.03;74571.78;5081565;27;63744;-81
2022/07/09 06:01:05;;;;;;;;;6.50;6.50;;;;;-146.67;29.84;74547.81;5081516;28;62183;-81
2022/07/09 06:03:31;;;;;;;;;9.50;7.00;;;;;-146.67;29.90;74559.81;5083954;27;61839;-81
2022/07/09 06:05:56;;;;;;;;;7.25;5.75;;;;;-146.67;29.67;74539.84;5082492;28;62194;-81
2022/07/09 06:08:23;;;;;;;;;8.75;7.50;;;;;-146.67;29.72;74555.81;5070552;28;65110;-81
2022/07/09 06:10:48;;;;;;;;;7.50;7.00;;;;;-146.67;30.01;74561.81;5083429;28;61873;-80
2022/07/09 06:13:14;;;;;;;;;10.00;7.00;;;;;-146.67;29.69;74579.78;5083240;28;62053;-81
2022/07/09 06:15:39;;;;;;;;;5.50;4.25;;;;;-146.67;29.81;74583.75;5063837;28;61902;-81
2022/07/09 06:18:05;;;;;;;;;7.50;7.25;;;;;-146.67;29.93;74585.75;5082665;27;61822;-80
2022/07/09 06:20:31;;;;;;;;;7.00;7.00;;;;;-146.67;29.90;74571.78;5083193;27;62174;-81
2022/07/09 06:22:56;;;;;;;;;7.75;6.75;;;;;-146.67;29.75;74569.78;5083742;28;61865;-84
2022/07/09 06:25:22;;;;;;;;;9.00;9.00;;;;;-146.67;29.74;74547.81;5065429;28;61906;-83
2022/07/09 06:27:48;;;;;;;;;1.00;1.00;;;;;-146.67;29.69;74521.88;5078517;27;62572;-84
2022/07/09 06:30:14;;;;;;;;;8.50;6.75;;;;;-146.67;29.21;74465.97;5062799;28;61927;-85
2022/07/09 06:32:39;;;;;;;;;7.25;5.75;;;;;-146.67;28.52;74378.13;5044446;28;62190;-83
2022/07/09 06:35:05;;;;;;;;;7.00;5.67;;;;;-146.67;28.66;74352.19;5045127;28;62018;-85
2022/07/09 06:37:30;;;;;;;;;6.00;6.00;;;;;-146.67;28.58;74334.22;5073490;28;62940;-81
2022/07/09 06:39:59;;;;;;;;;7.00;5.50;;;;;-146.67;28.16;74300.28;5082960;28;62013;-81
2022/07/09 06:42:25;;;;;;;;;6.75;5.50;;;;;-146.67;28.09;74334.22;5081934;27;61953;-81
2022/07/09 06:44:50;;;;;;;;;7.75;5.00;;;;;-146.67;28.73;74376.13;5080868;28;61842;-81
2022/07/09 06:47:16;;;;;;;;;8.25;6.50;;;;;-146.67;28.98;74406.06;5080174;28;62341;-81
2022/07/09 06:49:42;;;;;;;;;6.25;6.25;;;;;-146.67;28.95;74438.03;5082476;28;61748;-81
2022/07/09 06:52:07;;;;;;;;;8.25;7.00;;;;;-146.67;29.16;74465.97;5082987;27;63190;-83
2022/07/09 06:54:37;;;;;;;;;11.00;8.00;;;;;-146.67;29.19;74473.97;5063943;28;61997;-86
2022/07/09 06:57:03;;;;;;;;;8.67;7.00;;;;;-146.67;29.30;74487.94;5062994;28;63417;-79
2022/07/09 06:59:30;;;;;;;;;6.25;6.25;;;;;-146.67;29.60;74489.94;5081101;27;61835;-79
2022/07/09 07:01:59;;;;;;;;;9.50;8.50;;;;;-146.67;29.66;74497.91;5063079;28;62028;-79
2022/07/09 07:04:27;;;;;;;;;9.75;6.50;;;;;-146.67;29.75;74513.88;5081989;27;62258;-79
2022/07/09 07:06:52;;;;;;;;;5.75;5.75;;;;;-146.67;29.76;74509.88;5080885;28;62706;-79
2022/07/09 07:09:20;;;;;;;;;8.50;7.75;;;;;-146.67;29.66;74505.91;5082300;27;61824;-79
2022/07/09 07:11:47;;;;;;;;;5.75;5.75;;;;;-146.67;29.38;74505.91;5082510;28;62175;-79
2022/07/09 07:14:12;;;;;;;;;8.00;5.50;;;;;-146.67;29.78;74517.88;5063595;28;62509;-78
2022/07/09 07:16:38;;;;;;;;;6.75;5.50;;;;;-146.67;29.67;74511.88;5080917;27;62135;-78
2022/07/09 07:19:03;;;;;;;;;6.50;5.00;;;;;-146.67;30.09;74507.91;5082095;28;62329;-79
2022/07/09 07:21:29;;;;;;;;;10.00;7.00;;;;;-146.67;29.92;74507.91;5082888;27;61979;-79
2022/07/09 07:23:54;;;;;;;;;9.25;6.50;;;;;-146.67;29.87;74503.91;5082975;28;61843;-79
2022/07/09 07:26:19;;;;;;;;;7.25;6.00;;;;;-146.67;29.76;74507.91;5082296;28;62041;-79
2022/07/09 07:28:45;;;;;;;;;7.00;6.00;;;;;-146.67;29.86;74511.88;5079919;27;63335;-77
2022/07/09 07:31:10;;;;;;;;;5.00;5.00;;;;;-146.67;29.77;74511.88;5062813;28;62230;-79
2022/07/09 07:33:36;;;;;;;;;7.00;5.25;;;;;-146.67;29.52;74509.88;5063518;28;61854;-79
2022/07/09 07:36:01;;;;;;;;;7.00;7.00;;;;;-146.67;29.63;74517.88;5081030;28;61856;-79
2022/07/09 07:38:27;;;;;;;;;7.00;7.00;;;;;-146.67;29.55;74529.84;5063189;28;61941;-78
2022/07/09 07:40:53;;;;;;;;;8.75;7.25;;;;;-146.67;29.75;74539.84;5063722;28;62034;-79
2022/07/09 07:43:20;;;;;;;;;5.25;4.00;;;;;-146.67;29.83;74531.84;5063599;28;62846;-79
2022/07/09 07:45:45;;;;;;;;;6.00;4.00;;;;;-146.67;29.47;74525.88;5080784;28;62189;-78
2022/07/09 07:48:11;;;;;;;;;7.00;7.00;;;;;-146.67;29.76;74539.84;5080505;28;61943;-78
2022/07/09 07:50:38;;;;;;;;;5.75;5.00;;;;;-146.67;30.12;74541.84;5081260;28;61790;-78
2022/07/09 07:53:06;;;;;;;;;6.50;6.25;;;;;-146.67;29.84;74519.88;5056444;28;62511;-78
2022/07/09 07:58:10;;;;;;;;;6.00;4.25;;;;;-146.67;29.97;74509.88;5098683;27;61693;-76
2022/07/09 08:00:37;;;;;;;;;5.75;4.50;;;;;-146.67;30.00;74497.91;5094222;27;62696;-81
2022/07/09 08:03:03;;;;;;;;;5.67;5.00;;;;;-146.67;29.78;74499.91;5076308;27;62056;-78
2022/07/09 08:05:30;;;;;;;;;7.00;5.75;;;;;-146.67;29.46;74497.91;5100077;27;62321;-80
2022/07/09 08:07:55;;;;;;;;;5.33;5.33;;;;;-146.67;29.67;74509.88;5101186;27;62281;-82
2022/07/09 08:10:21;;;;;;;;;4.00;4.00;;;;;-146.67;29.97;74511.88;5080414;27;61826;-81
2022/07/09 08:12:46;;;;;;;;;6.00;6.00;;;;;-146.67;29.97;74501.91;5084293;27;63066;-79
2022/07/09 08:15:12;;;;;;;;;8.00;5.00;;;;;-146.67;30.01;74493.91;5104183;27;61832;-77
2022/07/09 08:17:37;;;;;;;;;4.67;4.67;;;;;-146.67;29.56;74491.94;5100702;27;61832;-77
2022/07/09 08:20:04;;;;;;;;;5.00;5.00;;;;;-146.67;29.63;74485.94;5097750;27;62078;-77
2022/07/09 08:22:30;;;;;;;;;5.00;5.00;;;;;-146.67;29.63;74469.97;5090737;27;61839;-77
2022/07/09 08:24:55;;;;;;;;;5.67;4.00;;;;;-146.67;29.53;74454.00;5100002;27;62605;-77
2022/07/09 08:27:21;;;;;;;;;5.25;4.25;;;;;-146.67;29.55;74448.00;5098735;27;61883;-76
2022/07/09 08:29:48;;;;;;;;;7.25;5.25;;;;;-146.67;29.09;74444.00;5079239;27;62005;-77
2022/07/09 08:32:14;;;;;;;;;5.75;5.75;;;;;-146.67;29.54;74456.00;5102534;27;61966;-76
2022/07/09 08:34:39;;;;;;;;;5.67;4.00;;;;;-146.67;29.43;74452.00;5081608;27;63779;-78
2022/07/09 08:37:05;;;;;;;;;5.00;5.00;;;;;-146.67;29.31;74448.00;5101729;27;62293;-79
2022/07/09 08:39:30;;;;;;;;;4.75;4.75;;;;;-146.67;29.26;74450.00;5105467;27;61909;-82
2022/07/09 08:41:58;;;;;;;;;4.33;3.33;;;;;-146.67;29.55;74440.00;5083697;27;62064;-81
2022/07/09 08:44:29;;;;;;;;;4.33;3.00;;;;;-146.67;29.18;74428.03;5101679;27;62090;-80
2022/07/09 08:46:56;;;;;;;;;8.00;3.33;;;;;-146.67;29.06;74426.03;5082539;27;62073;-81
2022/07/09 08:49:24;;;;;;;;;4.25;4.25;;;;;-146.67;28.84;74442.00;5087493;27;61886;-79
2022/07/09 08:51:51;;;;;;;;;5.00;3.75;;;;;-146.67;29.46;74428.03;5101583;27;61936;-81
2022/07/09 08:54:19;;;;;;;;;9.33;5.00;;;;;-146.67;29.35;74428.03;5078988;27;63159;-81
2022/07/09 08:56:44;;;;;;;;;5.00;4.00;;;;;-146.67;28.78;74420.06;5100948;27;61965;-82
2022/07/09 08:59:09;;;;;;;;;4.67;3.67;;;;;-146.67;29.15;74420.06;5096516;27;61835;-79
2022/07/09 09:01:35;;;;;;;;;4.25;4.00;;;;;-146.67;29.03;74422.03;5112309;27;62587;-78
2022/07/09 09:04:01;;;;;;;;;6.00;6.00;;;;;-146.67;29.04;74406.06;5103479;27;61984;-77
2022/07/09 09:06:27;;;;;;;;;3.00;3.00;;;;;-146.67;28.95;74396.09;5086268;27;62055;-75
2022/07/09 09:08:55;;;;;;;;;3.00;3.00;;;;;-146.67;28.95;74376.13;5087164;27;62021;-78
2022/07/09 09:11:24;;;;;;;;;7.67;4.00;;;;;-146.67;29.14;74376.13;5097843;27;61884;-82
2022/07/09 09:13:51;;;;;;;;;2.67;2.67;;;;;-146.67;28.78;74372.13;5122927;27;63111;-82
2022/07/09 09:16:18;;;;;;;;;2.33;2.33;;;;;-146.67;28.92;74370.16;5125383;27;61861;-81
2022/07/09 09:18:48;;;;;;;;;4.00;3.00;;;;;-146.67;28.87;74356.16;5094897;27;61903;-81
2022/07/09 09:21:16;;;;;;;;;3.67;2.67;;;;;-146.67;28.41;74354.16;5115418;27;61785;-82
2022/07/09 09:23:47;;;;;;;;;4.33;4.00;;;;;-146.67;28.95;74370.16;5083724;27;64666;-83
2022/07/09 09:26:18;;;;;;;;;4.67;2.67;;;;;-146.67;28.84;74390.09;5077368;27;61901;-80
2022/07/09 09:29:00;;;;;;;;;6.00;3.33;;;;;-146.67;28.91;74372.13;5085235;27;62110;-80
2022/07/09 09:31:26;;;;;;;;;5.00;3.00;;;;;-146.67;28.63;74348.19;5081443;27;62141;-78
2022/07/09 09:33:54;;;;;;;;;3.33;2.00;;;;;-146.67;28.71;74334.22;5101507;27;63632;-79
2022/07/09 09:36:38;;;;;;;;;7.00;3.33;;;;;-146.67;28.59;74328.22;5106237;27;61989;-80
2022/07/09 09:39:18;;;;;;;;;2.67;2.67;;;;;-146.67;28.68;74336.19;5106398;27;61772;-80
2022/07/09 09:41:48;;;;;;;;;2.67;2.67;;;;;-146.67;28.40;74338.19;5106246;27;62205;-81
2022/07/09 09:44:26;;;;;;;;;3.67;3.33;;;;;-146.67;28.87;74324.22;5093663;27;64170;-80
2022/07/09 09:46:53;;;;;;;;;3.00;3.00;;;;;-146.67;28.58;74308.25;5103536;27;61924;-80
2022/07/09 09:49:19;;;;;;;;;2.33;1.67;;;;;-146.67;28.57;74288.28;5086035;27;62079;-80
2022/07/09 09:52:03;;;;;;;;;3.00;2.67;;;;;-146.67;28.16;74276.31;5108296;27;61866;-81
2022/07/09 09:54:31;;;;;;;;;4.00;2.67;;;;;-146.67;28.19;74262.34;5112584;27;61910;-81
2022/07/09 09:56:58;;;;;;;;;3.00;1.67;;;;;-146.67;28.23;74252.34;5105552;27;61911;-80
2022/07/09 09:59:24;;;;;;;;;3.33;3.33;;;;;-146.67;27.89;74240.38;5101799;27;62107;-83
2022/07/09 10:01:49;;;;;;;;;2.67;2.67;;;;;-146.67;28.09;74224.41;5084601;27;62221;-81
2022/07/09 10:04:16;;;;;;;;;2.33;2.33;;;;;-146.67;27.96;74208.44;5102807;27;62274;-81
2022/07/09 10:06:42;;;;;;;;;3.00;3.00;;;;;-146.67;27.75;74184.47;5088098;27;62009;-76
2022/07/09 10:09:12;;;;;;;;;3.33;3.00;;;;;-146.67;27.67;74156.53;5082064;28;61783;-80
2022/07/09 10:11:39;;;;;;;;;2.00;2.00;;;;;-146.67;27.73;74138.56;5123221;27;61812;-77
2022/07/09 10:14:04;;;;;;;;;2.67;2.67;;;;;-146.67;27.87;74116.59;5124039;27;62024;-77
2022/07/09 10:16:40;;;;;;;;;2.67;1.00;;;;;-146.67;27.70;74102.63;5105627;27;61989;-77
2022/07/09 10:19:09;;;;;;;;;3.00;3.00;;;;;-146.67;27.58;74102.63;5106436;27;61978;-81
2022/07/09 10:21:36;;;;;;;;;3.00;2.67;;;;;-146.67;27.64;74124.59;5105694;27;62189;-80
2022/07/09 10:24:05;;;;;;;;;4.33;3.00;;;;;-146.67;27.86;74114.63;5123836;27;61954;-78
2022/07/09 10:26:38;;;;;;;;;3.00;3.00;;;;;-146.67;26.88;74092.66;5120064;27;61983;-79
2022/07/09 10:29:19;;;;;;;;;3.00;3.00;;;;;-146.67;27.28;74068.69;5101790;27;61841;-81
2022/07/09 10:31:47;;;;;;;;;4.00;3.00;;;;;-146.67;27.04;74048.75;5101995;27;62155;-81
2022/07/09 10:34:25;;;;;;;;;8.00;4.00;;;;;-146.67;27.24;74026.78;5084169;27;64850;-81
2022/07/09 10:37:07;;;;;;;;;7.67;5.67;;;;;-146.67;27.10;74010.81;5103196;27;61787;-81
2022/07/09 10:39:33;;;;;;;;;3.00;2.33;;;;;-146.67;26.50;73988.84;5084828;27;61826;-81
2022/07/09 10:42:18;;;;;;;;;3.67;3.67;;;;;-146.67;26.52;73956.91;5103220;27;61798;-81
2022/07/09 10:44:45;;;;;;;;;2.00;2.00;;;;;-146.67;26.48;73930.97;5065693;28;63766;-82
2022/07/09 10:47:11;;;;;;;;;3.00;3.00;;;;;-146.67;26.44;73918.97;5067035;27;61738;-80
2022/07/09 10:49:37;;;;;;;;;6.00;3.67;;;;;-146.67;26.31;73922.97;5083842;27;61954;-82
2022/07/09 10:52:07;;;;;;;;;4.00;1.67;;;;;-146.67;26.44;73907.00;5084705;27;62396;-80
2022/07/09 10:54:32;;;;;;;;;2.00;2.00;;;;;-146.67;26.13;73877.06;5079003;27;65032;-80
2022/07/09 10:56:59;;;;;;;;;3.67;2.33;;;;;-146.67;26.16;73865.09;5080413;27;62123;-82
2022/07/09 10:59:25;;;;;;;;;1.33;1.33;;;;;-146.67;25.88;73883.06;5102570;27;61797;-79
2022/07/09 11:01:51;;;;;;;;;4.33;4.33;;;;;-146.67;25.90;73857.09;5096315;27;61783;-79
2022/07/09 11:04:31;;;;;;;;;2.00;2.00;;;;;-146.67;25.96;73835.16;5065488;28;65175;-81
2022/07/09 11:06:57;;;;;;;;;4.00;4.00;;;;;-146.67;26.39;73819.19;5082392;27;61742;-80
2022/07/09 11:09:30;;;;;;;;;5.00;5.00;;;;;-146.67;25.58;73797.22;5075766;27;61796;-79
2022/07/09 11:11:56;;;;;;;;;6.00;5.00;;;;;-146.67;25.57;73775.25;5102556;27;62384;-82
2022/07/09 11:14:22;;;;;;;;;2.67;2.00;;;;;-146.67;25.74;73751.31;5101319;27;63682;-83
2022/07/09 11:16:58;;;;;;;;;3.00;3.00;;;;;-146.67;25.49;73705.41;5103040;27;61842;-86